createdAt,value
2022-07-29T01:13:40.369Z,96489.55
2022-07-29T01:16:14.604Z,96485.55
2022-07-29T01:23:47.127Z,96489.75
2022-07-29T01:30:55.494Z,96492.34
2022-07-29T01:33:47.005Z,96490.23
2022-07-29T01:36:21.000Z,96491.71
2022-07-29T01:43:41.589Z,96489.20
2022-07-29T01:46:14.992Z,96487.59
2022-07-29T01:48:48.804Z,96487.52
2022-07-29T01:56:31.000Z,96483.38
2022-07-29T01:59:05.799Z,96482.70
2022-07-29T02:01:36.195Z,96483.98
2022-07-29T02:04:09.262Z,96486.58
2022-07-29T02:07:15.508Z,96481.19
2022-07-29T02:09:46.408Z,96476.60
2022-07-29T02:12:19.047Z,96476.82
2022-07-29T02:15:10.819Z,96472.50
2022-07-29T02:22:05.345Z,96471.23
2022-07-29T02:24:41.345Z,96469.31
2022-07-29T02:27:12.993Z,96471.16
2022-07-29T02:29:41.859Z,96471.83
2022-07-29T02:32:13.810Z,96477.64
2022-07-29T02:34:44.232Z,96477.30
2022-07-29T02:37:13.969Z,96471.96
2022-07-29T02:39:45.206Z,96471.75
2022-07-29T02:42:17.284Z,96469.84
2022-07-29T02:44:46.160Z,96472.59
2022-07-29T02:51:56.891Z,96473.03
2022-07-29T02:54:54.460Z,96475.38
2022-07-29T02:57:55.139Z,96472.25
2022-07-29T03:00:29.370Z,96471.00
2022-07-29T03:03:03.185Z,96468.64
2022-07-29T03:05:32.785Z,96468.20
2022-07-29T03:08:05.998Z,96471.23
2022-07-29T03:10:35.696Z,96471.03
2022-07-29T03:13:06.409Z,96471.80
2022-07-29T03:16:04.270Z,96472.63
2022-07-29T03:18:33.805Z,96475.02
2022-07-29T03:21:02.536Z,96470.75
2022-07-29T03:23:33.280Z,96466.56
2022-07-29T03:26:03.961Z,96469.95
2022-07-29T03:28:32.426Z,96470.29
2022-07-29T03:31:01.087Z,96469.63
2022-07-29T03:33:31.604Z,96471.23
2022-07-29T03:36:00.279Z,96468.23
2022-07-29T03:38:32.342Z,96472.45
2022-07-29T03:41:07.080Z,96469.56
2022-07-29T03:43:55.282Z,96475.70
2022-07-29T03:46:27.895Z,96482.43
2022-07-29T03:49:01.247Z,96482.98
2022-07-29T03:51:33.886Z,96482.64
2022-07-29T03:54:09.828Z,96485.86
2022-07-29T03:56:47.400Z,96491.15
2022-07-29T03:59:18.975Z,96493.11
2022-07-29T04:01:48.326Z,96497.11
2022-07-29T04:04:17.200Z,96495.77
2022-07-29T04:06:48.230Z,96494.71
2022-07-29T04:09:16.972Z,96496.86
2022-07-29T04:11:59.123Z,96496.91
2022-07-29T04:14:33.892Z,96496.23
2022-07-29T04:17:03.313Z,96491.09
2022-07-29T04:19:32.401Z,96488.52
2022-07-29T04:22:02.371Z,96488.09
2022-07-29T04:24:31.043Z,96485.00
2022-07-29T04:26:59.475Z,96488.13
2022-07-29T04:29:27.846Z,96495.25
2022-07-29T04:31:56.193Z,96492.48
2022-07-29T04:34:28.067Z,96493.84
2022-07-29T04:36:57.149Z,96489.73
2022-07-29T04:39:25.935Z,96489.15
2022-07-29T04:41:58.069Z,96486.90
2022-07-29T04:44:28.654Z,96486.15
2022-07-29T04:46:58.556Z,96481.92
2022-07-29T04:49:27.245Z,96479.71
2022-07-29T04:51:55.813Z,96482.73
2022-07-29T04:54:24.774Z,96486.77
2022-07-29T04:56:54.112Z,96485.91
2022-07-29T04:59:22.511Z,96486.17
2022-07-29T05:01:51.046Z,96484.20
2022-07-29T05:04:20.112Z,96487.38
2022-07-29T05:06:49.094Z,96491.91
2022-07-29T05:09:17.558Z,96492.95
2022-07-29T05:11:45.992Z,96494.52
2022-07-29T05:14:14.827Z,96495.70
2022-07-29T05:16:44.729Z,96494.77
2022-07-29T05:19:14.546Z,96495.53
2022-07-29T05:21:43.323Z,96497.59
2022-07-29T05:24:13.006Z,96501.16
2022-07-29T05:26:41.698Z,96504.83
2022-07-29T05:29:42.794Z,96511.30
2022-07-29T05:31:58.870Z,96516.52
2022-07-29T05:34:27.388Z,96516.10
2022-07-29T05:36:55.893Z,96516.23
2022-07-29T05:39:48.672Z,96517.16
2022-07-29T05:42:13.504Z,96515.70
2022-07-29T05:44:41.933Z,96513.07
2022-07-29T05:47:10.420Z,96518.03
2022-07-29T05:49:38.824Z,96515.60
2022-07-29T05:52:07.194Z,96512.71
2022-07-29T05:54:36.385Z,96511.30
2022-07-29T05:57:04.917Z,96509.84
2022-07-29T05:59:37.982Z,96512.05
2022-07-29T06:02:06.568Z,96506.63
2022-07-29T06:04:35.780Z,96508.27
2022-07-29T06:07:04.748Z,96503.68
2022-07-29T06:09:36.309Z,96510.16
2022-07-29T06:12:05.332Z,96508.59
2022-07-29T06:14:33.896Z,96515.58
2022-07-29T06:17:02.771Z,96516.52
2022-07-29T06:19:31.191Z,96514.59
2022-07-29T06:21:59.866Z,96515.38
2022-07-29T06:24:28.327Z,96516.19
2022-07-29T06:26:57.227Z,96517.44
2022-07-29T06:29:25.758Z,96515.04
2022-07-29T06:31:54.178Z,96515.14
2022-07-29T06:34:22.613Z,96511.09
2022-07-29T06:36:51.528Z,96509.14
2022-07-29T06:39:21.525Z,96509.11
2022-07-29T06:41:51.806Z,96505.55
2022-07-29T06:44:20.566Z,96504.86
2022-07-29T06:46:51.247Z,96502.93
2022-07-29T06:49:19.986Z,96507.77
2022-07-29T06:51:48.502Z,96507.13
2022-07-29T06:54:17.685Z,96504.36
2022-07-29T06:56:46.639Z,96504.06
2022-07-29T06:59:15.034Z,96504.48
2022-07-29T07:18:08.558Z,96493.70
2022-07-29T07:20:37.557Z,96488.85
2022-07-29T07:23:05.927Z,96487.25
2022-07-29T07:25:34.706Z,96483.95
2022-07-29T07:28:04.422Z,96484.32
2022-07-29T07:30:32.816Z,96479.08
2022-07-29T07:33:01.455Z,96482.84
2022-07-29T07:35:30.207Z,96478.41
2022-07-29T07:37:59.815Z,96476.46
2022-07-29T07:40:28.179Z,96478.38
2022-07-29T07:42:56.610Z,96481.06
2022-07-29T07:45:25.349Z,96479.79
2022-07-29T07:47:53.786Z,96481.34
2022-07-29T07:50:22.219Z,96479.65
2022-07-29T07:52:59.072Z,96479.96
2022-07-29T07:55:27.658Z,96482.80
2022-07-29T07:57:56.417Z,96480.27
2022-07-29T08:00:24.835Z,96483.40
2022-07-29T08:02:53.504Z,96477.67
2022-07-29T08:08:56.438Z,96476.48
2022-07-29T08:11:24.966Z,96475.32
2022-07-29T08:13:53.413Z,96471.32
2022-07-29T08:16:22.105Z,96475.43
2022-07-29T08:18:50.435Z,96477.02
2022-07-29T08:21:19.106Z,96480.25
2022-07-29T08:23:58.973Z,96477.25
2022-07-29T08:26:28.555Z,96479.73
2022-07-29T08:28:56.979Z,96480.05
2022-07-29T08:31:25.401Z,96476.80
2022-07-29T08:33:53.847Z,96475.27
2022-07-29T08:36:22.299Z,96473.66
2022-07-29T08:38:50.787Z,96474.18
2022-07-29T08:41:22.542Z,96475.04
2022-07-29T08:43:52.294Z,96474.50
2022-07-29T08:46:22.119Z,96478.09
2022-07-29T08:48:51.158Z,96474.30
2022-07-29T08:51:21.534Z,96473.95
2022-07-29T08:53:51.453Z,96468.69
2022-07-29T08:56:20.602Z,96466.86
2022-07-29T08:58:52.761Z,96463.77
2022-07-29T09:01:36.166Z,96466.38
2022-07-29T09:04:13.362Z,96466.41
2022-07-29T09:06:47.578Z,96468.79
2022-07-29T09:09:16.115Z,96470.75
2022-07-29T09:11:44.907Z,96471.80
2022-07-29T09:14:14.953Z,96471.53
2022-07-29T09:17:09.753Z,96465.45
2022-07-29T09:19:38.715Z,96458.48
2022-07-29T09:22:31.636Z,96452.81
2022-07-29T09:25:00.125Z,96448.48
2022-07-29T09:27:30.068Z,96450.64
2022-07-29T09:30:02.359Z,96448.50
2022-07-29T09:32:33.757Z,96446.24
2022-07-29T09:35:19.281Z,96448.68
2022-07-29T09:37:48.953Z,96448.18
2022-07-29T09:40:19.976Z,96448.48
2022-07-29T09:42:48.776Z,96443.42
2022-07-29T09:45:34.907Z,96442.07
2022-07-29T09:48:20.902Z,96445.05
2022-07-29T09:50:50.935Z,96445.98
2022-07-29T09:53:45.549Z,96437.59
2022-07-29T09:56:15.469Z,96431.13
2022-07-29T09:58:43.679Z,96429.77
2022-07-29T10:01:13.538Z,96427.09
2022-07-29T10:04:01.997Z,96418.98
2022-07-29T10:06:30.737Z,96410.38
2022-07-29T10:09:12.570Z,96413.95
2022-07-29T10:11:49.077Z,96413.99
2022-07-29T10:14:19.018Z,96416.98
2022-07-29T10:16:47.909Z,96408.14
2022-07-29T10:19:16.410Z,96412.14
2022-07-29T10:21:46.248Z,96405.20
2022-07-29T10:24:14.905Z,96400.08
2022-07-29T10:26:43.976Z,96400.41
2022-07-29T10:29:12.342Z,96401.18
2022-07-29T10:31:56.878Z,96396.84
2022-07-29T10:34:53.359Z,96396.11
2022-07-29T10:37:46.133Z,96395.15
2022-07-29T10:40:51.965Z,96388.85
2022-07-29T10:43:29.884Z,96377.69
2022-07-29T10:46:02.126Z,96377.19
2022-07-29T10:48:30.662Z,96370.32
2022-07-29T10:51:00.179Z,96365.40
2022-07-29T10:53:49.752Z,96363.94
2022-07-29T10:56:36.892Z,96367.30
2022-07-29T10:59:22.807Z,96376.30
2022-07-29T11:01:54.237Z,96386.80
2022-07-29T11:04:45.256Z,96397.08
2022-07-29T11:07:17.584Z,96406.44
2022-07-29T11:10:14.648Z,96403.20
2022-07-29T11:12:48.813Z,96399.35
2022-07-29T11:15:24.985Z,96394.36
2022-07-29T11:17:53.710Z,96383.34
2022-07-29T11:20:44.783Z,96385.05
2022-07-29T11:23:22.528Z,96390.05
2022-07-29T11:26:23.183Z,96400.27
2022-07-29T11:28:53.411Z,96401.20
2022-07-29T11:31:40.411Z,96400.73
2022-07-29T11:34:20.788Z,96403.15
2022-07-29T11:37:11.052Z,96401.00
2022-07-29T11:39:45.479Z,96399.91
2022-07-29T11:42:32.113Z,96397.27
2022-07-29T11:45:43.004Z,96397.98
2022-07-29T11:48:32.082Z,96396.02
2022-07-29T11:51:01.228Z,96387.94
2022-07-29T11:53:32.408Z,96384.04
2022-07-29T11:56:03.540Z,96378.14
2022-07-29T11:58:32.989Z,96382.44
2022-07-29T12:01:04.108Z,96376.68
2022-07-29T12:03:35.771Z,96374.69
2022-07-29T12:06:15.089Z,96374.13
2022-07-29T12:08:44.937Z,96375.05
2022-07-29T12:11:20.366Z,96384.05
2022-07-29T12:13:50.482Z,96389.23
2022-07-29T12:16:25.958Z,96389.20
2022-07-29T12:18:59.956Z,96393.11
2022-07-29T12:21:28.911Z,96392.36
2022-07-29T12:24:04.802Z,96392.88
2022-07-29T12:26:37.993Z,96395.22
2022-07-29T12:29:11.527Z,96395.66
2022-07-29T12:31:45.841Z,96387.23
2022-07-29T12:34:16.859Z,96383.39
2022-07-29T12:36:45.640Z,96371.61
2022-07-29T12:39:14.432Z,96369.30
2022-07-29T12:41:43.265Z,96367.19
2022-07-29T12:44:12.648Z,96364.90
2022-07-29T12:46:41.090Z,96360.08
2022-07-29T12:49:10.200Z,96355.48
2022-07-29T12:51:40.804Z,96352.69
2022-07-29T12:54:14.778Z,96339.36
2022-07-29T12:56:45.874Z,96335.33
2022-07-29T12:59:22.993Z,96334.39
2022-07-29T13:01:53.513Z,96332.77
2022-07-29T13:04:33.898Z,96340.16
2022-07-29T13:07:04.787Z,96343.26
2022-07-29T13:09:45.207Z,96346.83
2022-07-29T13:12:15.248Z,96346.50
2022-07-29T13:14:51.501Z,96342.29
2022-07-29T13:17:24.145Z,96338.89
2022-07-29T13:20:15.945Z,96344.30
2022-07-29T13:22:48.547Z,96340.34
2022-07-29T13:25:25.742Z,96335.41
2022-07-29T13:27:55.684Z,96336.30
2022-07-29T13:30:25.309Z,96333.16
2022-07-29T13:32:54.267Z,96338.83
2022-07-29T13:35:22.652Z,96340.26
2022-07-29T13:37:51.974Z,96349.95
2022-07-29T13:40:20.496Z,96349.70
2022-07-29T13:42:48.969Z,96355.77
2022-07-29T13:45:17.330Z,96359.23
2022-07-29T13:47:49.447Z,96357.29
2022-07-29T13:50:18.072Z,96359.40
2022-07-29T13:52:48.188Z,96361.39
2022-07-29T13:55:16.605Z,96364.94
2022-07-29T13:57:45.177Z,96363.50
2022-07-29T14:00:14.445Z,96364.45
2022-07-29T14:02:43.144Z,96370.21
2022-07-29T14:05:12.886Z,96372.20
2022-07-29T14:07:41.333Z,96384.20
2022-07-29T14:10:10.149Z,96385.16
2022-07-29T14:12:39.473Z,96383.18
2022-07-29T14:36:13.972Z,96373.30
2022-07-29T14:38:42.395Z,96369.93
2022-07-29T14:41:11.034Z,96368.58
2022-07-29T14:43:39.441Z,96368.30
2022-07-29T14:46:09.112Z,96361.98
2022-07-29T14:48:37.654Z,96364.77
2022-07-29T14:51:06.511Z,96360.04
2022-07-29T14:53:34.955Z,96358.66
2022-07-29T14:56:21.177Z,96358.58
2022-07-29T14:58:52.131Z,96358.49
2022-07-29T15:01:20.740Z,96352.48
2022-07-29T15:03:49.396Z,96353.14
2022-07-29T15:06:17.814Z,96351.16
2022-07-29T15:08:46.347Z,96347.58
2022-07-29T15:11:14.870Z,96348.19
2022-07-29T15:13:43.223Z,96356.36
2022-07-29T15:16:11.752Z,96359.37
2022-07-29T15:18:41.446Z,96364.27
2022-07-29T15:21:09.872Z,96356.80
2022-07-29T15:23:38.295Z,96347.11
2022-07-29T15:26:06.646Z,96331.77
2022-07-29T15:28:35.054Z,96325.36
2022-07-29T15:31:03.475Z,96320.55
2022-07-29T15:33:31.851Z,96319.85
2022-07-29T15:36:00.240Z,96313.77
2022-07-29T15:38:29.130Z,96320.70
2022-07-29T15:40:57.705Z,96323.57
2022-07-29T15:43:28.883Z,96315.66
2022-07-29T15:46:17.563Z,96308.10
2022-07-29T15:48:46.017Z,96305.12
2022-07-29T15:51:14.323Z,96306.02
2022-07-29T15:53:42.683Z,96301.42
2022-07-29T15:56:11.100Z,96295.33
2022-07-29T15:58:39.459Z,96295.88
2022-07-29T16:01:07.864Z,96295.95
2022-07-29T16:03:36.282Z,96299.04
2022-07-29T16:06:04.985Z,96298.51
2022-07-29T16:08:33.351Z,96301.87
2022-07-29T16:11:01.728Z,96301.48
2022-07-29T16:13:30.102Z,96301.25
2022-07-29T16:16:00.617Z,96306.12
2022-07-29T16:18:31.308Z,96306.14
2022-07-29T16:20:59.739Z,96307.58
2022-07-29T16:23:28.159Z,96307.03
2022-07-29T16:26:00.074Z,96306.52
2022-07-29T16:28:30.995Z,96312.33
2022-07-29T16:30:59.892Z,96316.59
2022-07-29T16:33:28.903Z,96323.87
2022-07-29T16:36:18.721Z,96324.58
2022-07-29T16:38:47.689Z,96334.15
2022-07-29T16:41:16.293Z,96337.08
2022-07-29T16:43:44.826Z,96342.20
2022-07-29T16:46:18.569Z,96348.70
2022-07-29T16:48:48.544Z,96359.27
2022-07-29T16:51:17.197Z,96367.70
2022-07-29T16:53:45.814Z,96372.48
2022-07-29T16:56:18.597Z,96377.84
2022-07-29T16:58:47.537Z,96383.30
2022-07-29T17:01:17.346Z,96386.83
2022-07-29T17:04:04.243Z,96387.02
2022-07-29T17:06:35.381Z,96387.98
2022-07-29T17:09:08.942Z,96386.39
2022-07-29T17:11:52.856Z,96389.89
2022-07-29T17:14:28.417Z,96401.20
2022-07-29T17:17:02.244Z,96427.48
2022-07-29T17:19:34.146Z,96431.42
2022-07-29T17:22:11.719Z,96429.58
2022-07-29T17:24:45.542Z,96419.27
2022-07-29T17:27:14.400Z,96410.58
2022-07-29T17:29:43.100Z,96413.19
2022-07-29T17:32:11.983Z,96403.23
2022-07-29T17:34:42.139Z,96396.63
2022-07-29T17:37:12.404Z,96393.38
2022-07-29T17:39:42.452Z,96399.80
2022-07-29T17:42:14.079Z,96402.77
2022-07-29T17:44:42.537Z,96397.75
2022-07-29T17:47:16.065Z,96399.11
2022-07-29T17:49:45.670Z,96399.42
2022-07-29T17:52:14.110Z,96396.02
2022-07-29T17:54:42.439Z,96400.02
2022-07-29T17:57:10.805Z,96398.92
2022-07-29T17:59:39.190Z,96395.15
2022-07-29T18:02:07.614Z,96398.16
2022-07-29T18:04:36.050Z,96406.66
2022-07-29T18:07:04.442Z,96412.02
2022-07-29T18:09:32.884Z,96411.11
2022-07-29T18:12:01.254Z,96409.48
2022-07-29T18:14:29.758Z,96405.83
2022-07-29T18:16:58.484Z,96405.53
2022-07-29T18:19:27.054Z,96408.94
2022-07-29T18:21:57.338Z,96405.38
2022-07-29T18:24:29.266Z,96404.56
2022-07-29T18:26:57.884Z,96399.52
2022-07-29T18:29:29.167Z,96403.06
2022-07-29T18:31:59.117Z,96406.48
2022-07-29T18:34:28.746Z,96405.02
2022-07-29T18:36:57.322Z,96405.34
2022-07-29T18:39:25.971Z,96403.51
2022-07-29T18:41:55.057Z,96407.13
2022-07-29T18:44:23.476Z,96412.46
2022-07-29T18:46:52.769Z,96409.17
2022-07-29T18:49:22.376Z,96413.67
2022-07-29T18:51:51.388Z,96410.45
2022-07-29T18:54:20.174Z,96408.88
2022-07-29T18:56:49.439Z,96412.85
2022-07-29T18:59:20.394Z,96416.38
2022-07-29T19:01:49.427Z,96407.21
2022-07-29T19:04:18.136Z,96404.73
2022-07-29T19:06:46.631Z,96405.27
2022-07-29T19:09:15.081Z,96404.95
2022-07-29T19:11:44.153Z,96406.80
2022-07-29T19:14:12.559Z,96411.98
2022-07-29T19:16:40.902Z,96412.73
2022-07-29T19:19:09.618Z,96415.12
2022-07-29T19:21:38.036Z,96416.66
2022-07-29T19:24:11.073Z,96414.75
2022-07-29T19:26:46.907Z,96412.29
2022-07-29T19:29:16.492Z,96421.26
2022-07-29T19:31:44.913Z,96419.25
2022-07-29T19:34:13.457Z,96427.07
2022-07-29T19:36:42.081Z,96426.34
2022-07-29T19:39:10.593Z,96426.73
2022-07-29T19:41:39.312Z,96433.45
2022-07-29T19:44:07.659Z,96433.05
2022-07-29T19:46:36.079Z,96434.32
2022-07-29T19:49:06.691Z,96431.80
2022-07-29T19:51:35.211Z,96425.39
2022-07-29T19:54:03.838Z,96428.98
2022-07-29T19:56:32.304Z,96421.91
2022-07-29T19:59:00.946Z,96417.61
2022-07-29T20:01:32.303Z,96419.54
2022-07-29T20:04:00.750Z,96413.61
2022-07-29T20:06:29.177Z,96410.96
2022-07-29T20:08:58.883Z,96407.48
2022-07-29T20:11:29.885Z,96406.89
2022-07-29T20:13:58.252Z,96407.21
2022-07-29T20:16:26.709Z,96408.66
2022-07-29T20:18:55.119Z,96412.08
2022-07-29T20:21:23.486Z,96419.55
2022-07-29T20:23:51.813Z,96417.22
2022-07-29T20:26:20.207Z,96419.46
2022-07-29T20:28:49.545Z,96426.96
2022-07-29T20:31:19.103Z,96421.52
2022-07-29T20:33:47.616Z,96414.13
2022-07-29T20:36:16.113Z,96409.73
2022-07-29T20:38:44.530Z,96409.94
2022-07-29T20:41:12.937Z,96405.48
2022-07-29T20:43:41.647Z,96409.08
2022-07-29T20:46:10.359Z,96409.13
2022-07-29T20:48:39.996Z,96404.92
2022-07-29T20:51:08.488Z,96404.20
2022-07-29T20:53:40.866Z,96408.00
2022-07-29T20:56:09.218Z,96408.48
2022-07-29T20:58:38.394Z,96413.19
2022-07-29T21:01:07.549Z,96409.70
2022-07-29T21:03:36.678Z,96408.79
2022-07-29T21:06:05.080Z,96405.67
2022-07-29T21:08:33.998Z,96400.85
2022-07-29T21:11:02.324Z,96392.98
2022-07-29T21:13:33.162Z,96382.42
2022-07-29T21:16:04.301Z,96384.09
2022-07-29T21:18:37.613Z,96391.31
2022-07-29T21:21:06.140Z,96394.98
2022-07-29T21:23:35.368Z,96395.08
2022-07-29T21:26:06.239Z,96396.88
2022-07-29T21:28:38.689Z,96393.65
2022-07-29T21:31:12.795Z,96392.84
2022-07-29T21:33:43.239Z,96394.57
2022-07-29T21:36:47.727Z,96400.42
2022-07-29T21:39:07.228Z,96405.45
2022-07-29T21:41:35.818Z,96405.63
2022-07-29T21:44:04.303Z,96407.37
2022-07-29T21:46:32.740Z,96403.98
2022-07-29T21:49:01.170Z,96405.09
2022-07-29T21:51:29.627Z,96406.76
2022-07-29T21:53:58.029Z,96406.86
2022-07-29T21:56:27.631Z,96405.27
2022-07-29T21:58:56.495Z,96402.06
2022-07-29T22:01:24.921Z,96399.53
2022-07-29T22:03:53.431Z,96397.98
2022-07-29T22:06:23.261Z,96396.88
2022-07-29T22:08:51.977Z,96396.44
2022-07-29T22:11:21.415Z,96389.84
2022-07-29T22:13:49.777Z,96387.20
2022-07-29T22:16:21.298Z,96381.86
2022-07-29T22:18:49.700Z,96384.66
2022-07-29T22:21:18.226Z,96380.23
2022-07-29T22:23:47.120Z,96374.33
2022-07-29T22:26:15.924Z,96372.36
2022-07-29T22:28:44.372Z,96368.77
2022-07-29T22:31:12.757Z,96369.05
2022-07-29T22:33:41.142Z,96369.93
2022-07-29T22:36:09.697Z,96373.36
2022-07-29T22:38:38.119Z,96365.55
2022-07-29T22:41:06.596Z,96367.16
2022-07-29T22:43:35.774Z,96367.55
2022-07-29T22:46:04.202Z,96368.80
2022-07-29T22:48:35.041Z,96367.95
2022-07-29T22:51:05.364Z,96364.04
2022-07-29T22:53:33.705Z,96362.64
2022-07-29T22:56:02.151Z,96363.92
2022-07-29T22:58:30.494Z,96363.85
2022-07-29T23:00:59.013Z,96356.68
2022-07-29T23:03:27.505Z,96353.81
2022-07-29T23:05:55.872Z,96351.34
2022-07-29T23:08:24.189Z,96349.33
2022-07-29T23:10:52.522Z,96344.66
2022-07-29T23:13:21.297Z,96348.14
2022-07-29T23:15:49.775Z,96341.48
2022-07-29T23:18:18.295Z,96334.39
2022-07-29T23:20:46.907Z,96330.67
2022-07-29T23:23:15.326Z,96333.20
2022-07-29T23:25:44.060Z,96331.02
2022-07-29T23:28:13.426Z,96332.96
2022-07-29T23:30:43.147Z,96326.70
2022-07-29T23:33:11.544Z,96321.67
2022-07-29T23:35:40.124Z,96318.33
2022-07-29T23:38:08.637Z,96318.36
2022-07-29T23:40:37.122Z,96316.58
2022-07-29T23:43:08.862Z,96318.13
2022-07-29T23:45:44.822Z,96316.66
2022-07-29T23:48:14.836Z,96321.29
2022-07-29T23:50:43.183Z,96318.31
2022-07-29T23:53:12.414Z,96317.39
2022-07-29T23:55:40.946Z,96311.29
2022-07-29T23:58:09.470Z,96305.27
